Time;durP1;ratioP1;P1;durP2;ratioP2;P2;SDS_P1;SDS_P2;PMS_P1;PMS_P2;Temp;Humidity;BMP_temperature;BMP_pressure;BME280_temperature;BME280_humidity;BME280_pressure;Samples;Min_cycle;Max_cycle;Signal;HPM_P1;HPM_P2
2023/07/02 00:02:19;;;;;;;12.00;3.97;;;17.60;1.00;;;;;;19813243;29;20435;-40
2023/07/02 00:12:20;;;;;;;12.18;4.75;;;17.40;1.00;;;;;;19804700;29;20097;-40
2023/07/02 00:22:21;;;;;;;11.20;4.53;;;17.30;1.00;;;;;;19804140;29;20212;-40
2023/07/02 00:32:23;;;;;;;12.85;4.90;;;17.20;1.00;;;;;;19795705;29;20461;-40
2023/07/02 00:42:26;;;;;;;11.32;4.53;;;16.90;1.00;;;;;;19806022;29;20066;-40
2023/07/02 00:52:27;;;;;;;14.40;5.20;;;16.70;1.00;;;;;;19801234;29;20046;-40
2023/07/02 01:02:29;;;;;;;13.02;5.15;;;16.50;1.00;;;;;;19791929;29;20534;-40
2023/07/02 01:12:31;;;;;;;13.38;5.18;;;16.30;1.00;;;;;;19805155;29;20168;-40
2023/07/02 01:22:33;;;;;;;13.45;6.28;;;16.10;1.00;;;;;;19800164;29;20066;-40
2023/07/02 01:32:34;;;;;;;14.55;5.57;;;15.90;1.00;;;;;;19793530;29;20141;-40
2023/07/02 01:42:35;;;;;;;12.65;5.30;;;15.70;1.00;;;;;;19801176;29;20585;-40
2023/07/02 01:52:37;;;;;;;16.65;5.65;;;15.70;1.00;;;;;;19797781;29;20232;-40
2023/07/02 02:02:38;;;;;;;19.52;7.70;;;15.50;1.00;;;;;;19793814;29;20172;-40
2023/07/02 02:12:39;;;;;;;19.13;6.38;;;15.50;1.00;;;;;;19799988;29;20050;-40
2023/07/02 02:22:40;;;;;;;16.88;6.00;;;15.40;1.00;;;;;;19789279;29;20063;-40
2023/07/02 02:42:46;;;;;;;13.38;5.03;;;15.10;1.00;;;;;;19791071;29;20115;-40
2023/07/02 02:52:47;;;;;;;14.73;6.13;;;14.80;1.00;;;;;;19784990;29;20061;-39
2023/07/02 03:02:48;;;;;;;16.92;6.47;;;14.70;1.00;;;;;;19784817;29;20051;-39
2023/07/02 03:12:49;;;;;;;16.45;5.63;;;14.60;1.00;;;;;;19790068;29;20126;-40
2023/07/02 03:22:50;;;;;;;15.18;6.05;;;14.60;1.00;;;;;;19786533;29;20571;-40
2023/07/02 03:32:52;;;;;;;19.92;6.82;;;14.80;1.00;;;;;;19770098;29;20047;-40
2023/07/02 03:42:53;;;;;;;15.07;6.53;;;14.80;1.00;;;;;;19783829;29;20552;-40
2023/07/02 03:52:54;;;;;;;16.20;6.45;;;14.60;1.00;;;;;;19784914;29;20074;-40
2023/07/02 04:02:55;;;;;;;16.52;6.03;;;14.70;1.00;;;;;;19788541;29;20059;-40
2023/07/02 04:12:56;;;;;;;17.67;6.57;;;14.80;1.00;;;;;;19773546;29;20591;-39
2023/07/02 04:22:57;;;;;;;19.15;6.45;;;14.70;1.00;;;;;;19796772;29;20074;-40
2023/07/02 04:32:59;;;;;;;15.07;5.75;;;14.70;1.00;;;;;;19802468;29;20050;-40
2023/07/02 04:43:00;;;;;;;19.08;6.38;;;14.70;1.00;;;;;;19794269;29;20133;-40
2023/07/02 04:53:01;;;;;;;20.75;6.75;;;14.80;1.00;;;;;;19785874;29;20115;-39
2023/07/02 05:03:03;;;;;;;18.55;5.68;;;15.10;1.00;;;;;;19785679;29;21037;-40
2023/07/02 05:13:04;;;;;;;17.55;5.80;;;15.20;1.00;;;;;;19782572;29;20046;-40
2023/07/02 05:23:06;;;;;;;13.95;5.35;;;15.50;1.00;;;;;;19799020;29;20755;-40
2023/07/02 05:33:07;;;;;;;15.32;5.35;;;15.70;1.00;;;;;;19786876;29;20511;-40
2023/07/02 05:43:08;;;;;;;14.90;4.55;;;16.00;1.00;;;;;;19786569;29;20418;-40
2023/07/02 05:53:10;;;;;;;16.35;5.07;;;16.40;1.00;;;;;;19794243;29;20058;-40
2023/07/02 06:03:18;;;;;;;15.15;5.40;;;16.60;1.00;;;;;;19782017;29;20043;-40
2023/07/02 06:13:19;;;;;;;;;;;17.00;1.00;;;;;;19787923;29;20122;-40
2023/07/02 06:23:20;;;;;;;15.63;5.60;;;17.20;1.00;;;;;;19784331;29;19953;-40
2023/07/02 06:33:22;;;;;;;11.98;6.10;;;17.30;1.00;;;;;;19785334;29;20047;-40
2023/07/02 06:43:23;;;;;;;12.25;4.63;;;17.30;1.00;;;;;;19793517;29;21532;-40
2023/07/02 06:53:24;;;;;;;10.20;3.90;;;17.20;1.00;;;;;;19786660;29;20057;-40
2023/07/02 07:03:25;;;;;;;10.38;3.80;;;17.40;1.00;;;;;;19783569;29;20504;-40
2023/07/02 07:13:27;;;;;;;11.98;3.88;;;17.70;1.00;;;;;;19797143;29;20074;-40
2023/07/02 07:23:28;;;;;;;12.80;4.22;;;17.70;1.00;;;;;;19788793;29;20058;-40
2023/07/02 07:33:29;;;;;;;13.00;4.00;;;17.80;1.00;;;;;;19782590;29;20062;-40
2023/07/02 07:43:31;;;;;;;15.50;4.53;;;17.80;1.00;;;;;;19786796;29;20070;-40
2023/07/02 07:53:32;;;;;;;11.60;4.70;;;18.00;1.00;;;;;;19790692;29;20587;-40
2023/07/02 08:03:33;;;;;;;8.73;3.80;;;18.10;1.00;;;;;;19794235;29;20062;-40
2023/07/02 08:13:34;;;;;;;16.63;4.18;;;18.30;1.00;;;;;;19802208;29;20530;-40
2023/07/02 08:23:35;;;;;;;15.00;4.30;;;18.40;1.00;;;;;;19799039;29;20063;-40
2023/07/02 08:33:36;;;;;;;11.80;4.00;;;18.50;1.00;;;;;;19781535;29;20139;-40
2023/07/02 08:43:38;;;;;;;9.80;3.60;;;18.70;1.00;;;;;;19792444;29;20178;-40
2023/07/02 08:53:39;;;;;;;12.02;3.45;;;18.80;1.00;;;;;;19801321;29;20134;-40
2023/07/02 09:03:41;;;;;;;9.38;3.25;;;18.70;1.00;;;;;;19804450;29;20451;-40
2023/07/02 09:13:46;;;;;;;9.10;3.03;;;19.00;1.00;;;;;;19806806;29;20071;-40
2023/07/02 09:23:48;;;;;;;7.78;2.80;;;19.10;1.00;;;;;;19803082;29;20384;-40
2023/07/02 09:33:50;;;;;;;8.82;2.63;;;19.60;1.00;;;;;;19786144;29;20054;-40
2023/07/02 09:43:51;;;;;;;8.48;3.28;;;19.90;1.00;;;;;;19797707;29;21476;-41
2023/07/02 09:53:52;;;;;;;6.72;2.33;;;20.00;1.00;;;;;;19801737;29;20141;-40
2023/07/02 10:03:53;;;;;;;7.72;2.70;;;20.20;1.00;;;;;;19798296;29;20059;-41
2023/07/02 10:13:59;;;;;;;3.97;1.92;;;20.40;1.00;;;;;;19794902;29;20486;-41
2023/07/02 10:24:12;;;;;;;8.30;2.85;;;20.60;1.00;;;;;;19787615;29;20142;-41
2023/07/02 10:34:14;;;;;;;8.55;2.85;;;20.70;1.00;;;;;;19783767;29;20057;-41
2023/07/02 10:44:15;;;;;;;6.22;2.80;;;20.70;1.00;;;;;;19781559;29;20685;-40
2023/07/02 10:54:17;;;;;;;7.38;3.22;;;20.60;1.00;;;;;;19803400;29;20527;-40
2023/07/02 11:04:18;;;;;;;7.90;2.90;;;20.20;1.00;;;;;;19794410;29;20508;-40
2023/07/02 11:14:33;;;;;;;7.13;3.00;;;20.80;1.00;;;;;;19790753;29;20140;-41
2023/07/02 11:24:36;;;;;;;7.53;3.03;;;21.20;1.00;;;;;;19785648;29;20047;-40
2023/07/02 11:34:38;;;;;;;5.70;2.75;;;21.40;1.00;;;;;;19802414;29;20142;-40
2023/07/02 11:44:40;;;;;;;5.45;2.78;;;21.60;1.00;;;;;;19789768;29;20110;-40
2023/07/02 11:54:42;;;;;;;8.75;3.08;;;21.20;1.00;;;;;;19782802;29;20071;-41
2023/07/02 12:04:43;;;;;;;6.78;3.45;;;21.50;1.00;;;;;;19788285;29;20071;-41
2023/07/02 12:14:44;;;;;;;6.60;2.80;;;22.10;1.00;;;;;;19795282;29;20055;-40
2023/07/02 12:24:45;;;;;;;8.90;3.30;;;22.30;1.00;;;;;;19779519;29;20122;-41
2023/07/02 12:34:47;;;;;;;7.65;3.33;;;22.50;1.00;;;;;;19771701;29;20488;-41
2023/07/02 12:44:49;;;;;;;6.65;3.00;;;22.00;1.00;;;;;;19795853;29;20051;-41
2023/07/02 12:54:50;;;;;;;6.80;3.10;;;22.20;1.00;;;;;;19811687;29;20082;-41
2023/07/02 13:04:52;;;;;;;7.68;3.58;;;21.80;1.00;;;;;;19804453;29;20062;-41
2023/07/02 13:14:54;;;;;;;11.23;3.78;;;21.60;1.00;;;;;;19795539;29;20063;-40
2023/07/02 13:24:55;;;;;;;7.95;3.53;;;22.20;1.00;;;;;;19801224;29;20046;-41
2023/07/02 13:34:56;;;;;;;8.00;4.00;;;22.00;1.00;;;;;;19799184;29;20655;-41
2023/07/02 13:44:57;;;;;;;8.45;3.72;;;22.00;1.00;;;;;;19797894;29;20200;-41
2023/07/02 13:54:59;;;;;;;9.60;3.97;;;21.80;1.00;;;;;;19790189;29;20046;-41
2023/07/02 14:05:00;;;;;;;7.03;3.53;;;21.80;1.00;;;;;;19793368;29;20235;-41
2023/07/02 14:15:01;;;;;;;9.05;3.42;;;21.50;1.00;;;;;;19799122;29;20059;-41
2023/07/02 14:25:03;;;;;;;8.50;2.90;;;21.80;1.00;;;;;;19802118;29;20055;-40
2023/07/02 14:35:04;;;;;;;7.68;3.20;;;21.80;1.00;;;;;;19801308;29;20051;-41
2023/07/02 14:45:06;;;;;;;5.78;2.95;;;21.80;1.00;;;;;;19801119;29;20074;-41
2023/07/02 14:55:27;;;;;;;8.15;3.15;;;22.30;1.00;;;;;;19802968;29;20135;-41
2023/07/02 15:05:29;;;;;;;6.75;2.80;;;21.90;1.00;;;;;;19794879;29;20055;-41
2023/07/02 15:15:30;;;;;;;7.25;3.00;;;21.60;1.00;;;;;;19798332;29;20073;-41
2023/07/02 15:25:32;;;;;;;8.25;3.00;;;21.30;1.00;;;;;;19793262;29;20126;-40
2023/07/02 15:35:33;;;;;;;5.85;3.20;;;21.20;1.00;;;;;;19786923;29;20058;-41
2023/07/02 15:45:34;;;;;;;9.13;3.50;;;21.00;1.00;;;;;;19794517;29;20510;-41
2023/07/02 15:55:36;;;;;;;8.88;3.25;;;21.10;1.00;;;;;;19766244;29;20062;-40
2023/07/02 16:05:37;;;;;;;9.27;3.85;;;21.30;1.00;;;;;;19768012;29;20498;-40
2023/07/02 16:15:40;;;;;;;9.07;3.17;;;21.30;1.00;;;;;;19781753;29;20059;-40
2023/07/02 16:25:41;;;;;;;11.75;4.20;;;21.20;1.00;;;;;;19785251;29;20563;-40
2023/07/02 16:35:42;;;;;;;9.27;3.63;;;21.40;1.00;;;;;;19812384;29;20059;-39
2023/07/02 16:45:56;;;;;;;7.57;3.78;;;21.20;1.00;;;;;;19815314;29;20058;-40
2023/07/02 16:56:02;;;;;;;8.98;4.10;;;21.10;1.00;;;;;;19815415;29;20130;-40
2023/07/02 17:06:06;;;;;;;12.50;3.90;;;20.90;1.00;;;;;;19809462;29;20107;-40
2023/07/02 17:16:08;;;;;;;8.57;3.63;;;20.90;1.00;;;;;;19805511;29;20054;-40
2023/07/02 17:26:10;;;;;;;9.13;4.05;;;20.60;1.00;;;;;;19796463;29;20043;-40
2023/07/02 17:36:16;;;;;;;8.73;4.07;;;20.60;1.00;;;;;;19789187;29;20055;-40
2023/07/02 17:46:17;;;;;;;10.88;3.92;;;20.60;1.00;;;;;;19804849;29;20441;-40
2023/07/02 17:56:18;;;;;;;10.18;4.07;;;20.40;1.00;;;;;;19807119;29;20055;-39
2023/07/02 18:06:21;;;;;;;10.80;4.63;;;20.30;1.00;;;;;;19799729;29;20134;-40
2023/07/02 18:16:22;;;;;;;10.88;4.68;;;20.30;1.00;;;;;;19793141;29;20112;-39
2023/07/02 18:26:23;;;;;;;11.43;4.22;;;20.10;1.00;;;;;;19789923;29;20641;-40
2023/07/02 18:36:25;;;;;;;14.43;4.40;;;19.90;1.00;;;;;;19787002;29;20115;-39
2023/07/02 18:46:26;;;;;;;12.95;4.35;;;19.70;1.00;;;;;;19784695;29;20124;-39
2023/07/02 18:56:28;;;;;;;12.32;4.50;;;19.60;1.00;;;;;;19794086;29;20062;-39
2023/07/02 19:06:29;;;;;;;12.05;4.10;;;19.50;1.00;;;;;;19781989;29;20054;-40
2023/07/02 19:16:30;;;;;;;8.23;3.40;;;19.30;1.00;;;;;;19784586;29;20113;-40
2023/07/02 19:26:31;;;;;;;13.38;4.22;;;19.20;1.00;;;;;;19783154;29;20103;-40
2023/07/02 19:36:32;;;;;;;8.50;3.95;;;19.00;1.00;;;;;;19791967;29;20062;-41
2023/07/02 19:46:34;;;;;;;12.88;4.15;;;19.00;1.00;;;;;;19800592;29;20133;-41
2023/07/02 19:56:35;;;;;;;9.82;3.65;;;19.00;1.00;;;;;;19805281;29;20051;-41
2023/07/02 20:06:36;;;;;;;9.68;3.20;;;18.80;1.00;;;;;;19795523;29;20608;-41
2023/07/02 20:16:37;;;;;;;10.50;3.50;;;18.70;1.00;;;;;;19795557;29;20043;-40
2023/07/02 20:26:39;;;;;;;13.23;4.53;;;18.80;1.00;;;;;;19770318;29;20047;-40
2023/07/02 20:36:40;;;;;;;15.98;4.50;;;18.60;1.00;;;;;;19787654;29;20493;-40
2023/07/02 20:46:47;;;;;;;12.00;3.22;;;18.50;1.00;;;;;;19804372;29;20112;-40
2023/07/02 20:56:49;;;;;;;;;;;18.40;1.00;;;;;;19802563;29;20111;-40
2023/07/02 21:06:50;;;;;;;13.55;4.32;;;18.40;1.00;;;;;;19773557;29;20356;-40
2023/07/02 21:16:52;;;;;;;13.18;3.72;;;18.40;1.00;;;;;;19794781;29;20054;-40
2023/07/02 21:26:53;;;;;;;17.50;4.13;;;18.40;1.00;;;;;;19782350;29;20172;-40
2023/07/02 21:36:54;;;;;;;17.48;3.80;;;18.30;1.00;;;;;;19792180;29;20212;-40
2023/07/02 21:46:55;;;;;;;15.90;4.00;;;18.20;1.00;;;;;;19784705;29;20051;-40
2023/07/02 21:56:57;;;;;;;18.73;3.70;;;18.20;1.00;;;;;;19779594;29;20080;-40
2023/07/02 22:06:58;;;;;;;20.55;5.40;;;18.30;1.00;;;;;;19803149;29;20650;-40
2023/07/02 22:17:07;;;;;;;16.55;3.42;;;18.20;1.00;;;;;;19795875;29;20267;-40
2023/07/02 22:27:08;;;;;;;22.17;4.68;;;18.10;1.00;;;;;;19791866;29;20116;-40
2023/07/02 22:37:10;;;;;;;14.02;3.83;;;18.10;1.00;;;;;;19793404;29;20319;-40
2023/07/02 22:47:12;;;;;;;17.50;4.25;;;18.10;1.00;;;;;;19789641;29;20409;-40
2023/07/02 22:57:13;;;;;;;17.52;3.80;;;18.10;1.00;;;;;;19794930;29;20107;-40
2023/07/02 23:07:14;;;;;;;13.18;3.80;;;18.00;1.00;;;;;;19769526;29;20139;-40
2023/07/02 23:17:15;;;;;;;20.15;4.25;;;18.00;1.00;;;;;;19799001;29;21042;-40
2023/07/02 23:27:18;;;;;;;17.15;4.55;;;18.00;1.00;;;;;;19779351;29;20059;-40
2023/07/02 23:37:19;;;;;;;15.20;4.30;;;17.90;1.00;;;;;;19788198;29;20118;-40
2023/07/02 23:47:20;;;;;;;20.05;4.88;;;17.80;1.00;;;;;;19792039;29;20586;-39
2023/07/02 23:57:21;;;;;;;16.15;4.25;;;17.80;1.00;;;;;;19786381;29;20337;-39
